sensor_id;sensor_type;location;lat;lon;timestamp;temperature;humidity
14741;DHT22;7462;53.530;9.414;2022-08-21T00:00:30;16.40;99.90
14741;DHT22;7462;53.530;9.414;2022-08-21T00:03:00;16.40;99.90
14741;DHT22;7462;53.530;9.414;2022-08-21T00:05:30;16.40;99.90
14741;DHT22;7462;53.530;9.414;2022-08-21T00:08:00;16.40;99.90
14741;DHT22;7462;53.530;9.414;2022-08-21T00:10:30;16.40;99.90
14741;DHT22;7462;53.530;9.414;2022-08-21T00:13:00;16.40;99.90
14741;DHT22;7462;53.530;9.414;2022-08-21T00:15:30;16.30;99.90
14741;DHT22;7462;53.530;9.414;2022-08-21T00:17:59;16.30;99.90
14741;DHT22;7462;53.530;9.414;2022-08-21T00:20:28;16.30;99.90
14741;DHT22;7462;53.530;9.414;2022-08-21T00:22:56;16.30;99.90
14741;DHT22;7462;53.530;9.414;2022-08-21T00:25:26;16.20;99.90
14741;DHT22;7462;53.530;9.414;2022-08-21T00:27:55;16.20;99.90
14741;DHT22;7462;53.530;9.414;2022-08-21T00:30:26;16.20;99.90
14741;DHT22;7462;53.530;9.414;2022-08-21T00:32:56;16.20;99.90
14741;DHT22;7462;53.530;9.414;2022-08-21T00:35:27;16.20;99.90
14741;DHT22;7462;53.530;9.414;2022-08-21T00:37:55;16.10;99.90
14741;DHT22;7462;53.530;9.414;2022-08-21T00:40:27;16.10;99.90
14741;DHT22;7462;53.530;9.414;2022-08-21T00:42:56;16.10;99.90
14741;DHT22;7462;53.530;9.414;2022-08-21T00:45:24;16.10;99.90
14741;DHT22;7462;53.530;9.414;2022-08-21T00:47:54;16.10;99.90
14741;DHT22;7462;53.530;9.414;2022-08-21T00:50:26;16.10;99.90
14741;DHT22;7462;53.530;9.414;2022-08-21T00:52:57;16.10;99.90
14741;DHT22;7462;53.530;9.414;2022-08-21T00:55:27;16.00;99.90
14741;DHT22;7462;53.530;9.414;2022-08-21T00:57:59;16.00;99.90
14741;DHT22;7462;53.530;9.414;2022-08-21T01:00:31;16.00;99.90
14741;DHT22;7462;53.530;9.414;2022-08-21T01:03:02;16.00;99.90
14741;DHT22;7462;53.530;9.414;2022-08-21T01:05:35;16.00;99.90
14741;DHT22;7462;53.530;9.414;2022-08-21T01:08:03;15.90;99.90
14741;DHT22;7462;53.530;9.414;2022-08-21T01:10:34;15.90;99.90
14741;DHT22;7462;53.530;9.414;2022-08-21T01:13:04;15.90;99.90
14741;DHT22;7462;53.530;9.414;2022-08-21T01:15:36;15.90;99.90
14741;DHT22;7462;53.530;9.414;2022-08-21T01:18:07;15.90;99.90
14741;DHT22;7462;53.530;9.414;2022-08-21T01:20:40;15.80;99.90
14741;DHT22;7462;53.530;9.414;2022-08-21T01:23:13;15.80;99.90
14741;DHT22;7462;53.530;9.414;2022-08-21T01:25:41;15.90;99.90
14741;DHT22;7462;53.530;9.414;2022-08-21T01:28:13;15.80;99.90
14741;DHT22;7462;53.530;9.414;2022-08-21T01:30:43;15.80;99.90
14741;DHT22;7462;53.530;9.414;2022-08-21T01:33:11;15.80;99.90
14741;DHT22;7462;53.530;9.414;2022-08-21T01:35:39;15.80;99.90
14741;DHT22;7462;53.530;9.414;2022-08-21T01:38:07;15.80;99.90
14741;DHT22;7462;53.530;9.414;2022-08-21T01:40:37;15.80;99.90
14741;DHT22;7462;53.530;9.414;2022-08-21T01:43:05;15.80;99.90
14741;DHT22;7462;53.530;9.414;2022-08-21T01:45:33;15.80;99.90
14741;DHT22;7462;53.530;9.414;2022-08-21T01:48:02;15.80;99.90
14741;DHT22;7462;53.530;9.414;2022-08-21T01:50:30;15.80;99.90
14741;DHT22;7462;53.530;9.414;2022-08-21T01:52:59;15.80;99.90
14741;DHT22;7462;53.530;9.414;2022-08-21T01:55:27;15.80;99.90
14741;DHT22;7462;53.530;9.414;2022-08-21T01:57:57;15.70;99.90
14741;DHT22;7462;53.530;9.414;2022-08-21T02:00:27;15.70;99.90
14741;DHT22;7462;53.530;9.414;2022-08-21T02:02:55;15.70;99.90
14741;DHT22;7462;53.530;9.414;2022-08-21T02:05:23;15.70;99.90
14741;DHT22;7462;53.530;9.414;2022-08-21T02:07:55;15.70;99.90
14741;DHT22;7462;53.530;9.414;2022-08-21T02:10:25;15.70;99.90
14741;DHT22;7462;53.530;9.414;2022-08-21T02:12:54;15.70;99.90
14741;DHT22;7462;53.530;9.414;2022-08-21T02:15:24;15.70;99.90
14741;DHT22;7462;53.530;9.414;2022-08-21T02:17:54;15.60;99.90
14741;DHT22;7462;53.530;9.414;2022-08-21T02:20:25;15.60;99.90
14741;DHT22;7462;53.530;9.414;2022-08-21T02:22:53;15.60;99.90
14741;DHT22;7462;53.530;9.414;2022-08-21T02:25:24;15.60;99.90
14741;DHT22;7462;53.530;9.414;2022-08-21T02:27:53;15.50;99.90
14741;DHT22;7462;53.530;9.414;2022-08-21T02:30:25;15.50;99.90
14741;DHT22;7462;53.530;9.414;2022-08-21T02:32:54;15.50;99.90
14741;DHT22;7462;53.530;9.414;2022-08-21T02:35:23;15.50;99.90
14741;DHT22;7462;53.530;9.414;2022-08-21T02:37:54;15.40;99.90
14741;DHT22;7462;53.530;9.414;2022-08-21T02:40:24;15.50;99.90
14741;DHT22;7462;53.530;9.414;2022-08-21T02:42:53;15.40;99.90
14741;DHT22;7462;53.530;9.414;2022-08-21T02:45:21;15.40;99.90
14741;DHT22;7462;53.530;9.414;2022-08-21T02:47:53;15.40;99.90
14741;DHT22;7462;53.530;9.414;2022-08-21T02:50:23;15.40;99.90
14741;DHT22;7462;53.530;9.414;2022-08-21T02:52:53;15.40;99.90
14741;DHT22;7462;53.530;9.414;2022-08-21T02:55:22;15.30;99.90
14741;DHT22;7462;53.530;9.414;2022-08-21T02:57:52;15.40;99.90
14741;DHT22;7462;53.530;9.414;2022-08-21T03:00:22;15.30;99.90
14741;DHT22;7462;53.530;9.414;2022-08-21T03:02:52;15.30;99.90
14741;DHT22;7462;53.530;9.414;2022-08-21T03:05:23;15.30;99.90
14741;DHT22;7462;53.530;9.414;2022-08-21T03:07:52;15.30;99.90
14741;DHT22;7462;53.530;9.414;2022-08-21T03:10:20;15.30;99.90
14741;DHT22;7462;53.530;9.414;2022-08-21T03:12:48;15.30;99.90
14741;DHT22;7462;53.530;9.414;2022-08-21T03:15:19;15.30;99.90
14741;DHT22;7462;53.530;9.414;2022-08-21T03:17:48;15.30;99.90
14741;DHT22;7462;53.530;9.414;2022-08-21T03:20:22;15.30;99.90
14741;DHT22;7462;53.530;9.414;2022-08-21T03:22:50;15.30;99.90
14741;DHT22;7462;53.530;9.414;2022-08-21T03:25:19;15.30;99.90
14741;DHT22;7462;53.530;9.414;2022-08-21T03:28:10;15.20;99.90
14741;DHT22;7462;53.530;9.414;2022-08-21T03:30:40;15.20;99.90
14741;DHT22;7462;53.530;9.414;2022-08-21T03:33:08;15.20;99.90
14741;DHT22;7462;53.530;9.414;2022-08-21T03:35:43;15.20;99.90
14741;DHT22;7462;53.530;9.414;2022-08-21T03:38:12;15.20;99.90
14741;DHT22;7462;53.530;9.414;2022-08-21T03:40:42;15.20;99.90
14741;DHT22;7462;53.530;9.414;2022-08-21T03:43:10;15.20;99.90
14741;DHT22;7462;53.530;9.414;2022-08-21T03:45:38;15.20;99.90
14741;DHT22;7462;53.530;9.414;2022-08-21T03:48:07;15.20;99.90
14741;DHT22;7462;53.530;9.414;2022-08-21T03:50:41;15.20;99.90
14741;DHT22;7462;53.530;9.414;2022-08-21T03:53:12;15.20;99.90
14741;DHT22;7462;53.530;9.414;2022-08-21T03:55:43;15.10;99.90
14741;DHT22;7462;53.530;9.414;2022-08-21T03:58:12;15.10;99.90
14741;DHT22;7462;53.530;9.414;2022-08-21T04:00:43;15.10;99.90
14741;DHT22;7462;53.530;9.414;2022-08-21T04:03:11;15.10;99.90
14741;DHT22;7462;53.530;9.414;2022-08-21T04:05:39;15.10;99.90
14741;DHT22;7462;53.530;9.414;2022-08-21T04:08:07;15.10;99.90
14741;DHT22;7462;53.530;9.414;2022-08-21T04:10:39;15.20;99.90
14741;DHT22;7462;53.530;9.414;2022-08-21T04:13:07;15.10;99.90
14741;DHT22;7462;53.530;9.414;2022-08-21T04:15:36;15.20;99.90
14741;DHT22;7462;53.530;9.414;2022-08-21T04:18:04;15.20;99.90
14741;DHT22;7462;53.530;9.414;2022-08-21T04:20:33;15.10;99.90
14741;DHT22;7462;53.530;9.414;2022-08-21T04:23:01;15.10;99.90
14741;DHT22;7462;53.530;9.414;2022-08-21T04:25:29;15.10;99.90
14741;DHT22;7462;53.530;9.414;2022-08-21T04:27:59;15.10;99.90
14741;DHT22;7462;53.530;9.414;2022-08-21T04:30:28;15.10;99.90
14741;DHT22;7462;53.530;9.414;2022-08-21T04:32:57;15.20;99.90
14741;DHT22;7462;53.530;9.414;2022-08-21T04:35:27;15.20;99.90
14741;DHT22;7462;53.530;9.414;2022-08-21T04:37:56;15.30;99.90
14741;DHT22;7462;53.530;9.414;2022-08-21T04:40:26;15.30;99.90
14741;DHT22;7462;53.530;9.414;2022-08-21T04:42:57;15.40;99.90
14741;DHT22;7462;53.530;9.414;2022-08-21T04:45:30;15.40;99.90
14741;DHT22;7462;53.530;9.414;2022-08-21T04:48:00;15.40;99.90
14741;DHT22;7462;53.530;9.414;2022-08-21T04:50:31;15.50;99.90
14741;DHT22;7462;53.530;9.414;2022-08-21T04:53:07;15.50;99.90
14741;DHT22;7462;53.530;9.414;2022-08-21T04:55:36;15.50;99.90
14741;DHT22;7462;53.530;9.414;2022-08-21T04:58:05;15.50;99.90
14741;DHT22;7462;53.530;9.414;2022-08-21T05:00:36;15.50;99.90
14741;DHT22;7462;53.530;9.414;2022-08-21T05:03:06;15.60;99.90
14741;DHT22;7462;53.530;9.414;2022-08-21T05:05:35;15.60;99.90
14741;DHT22;7462;53.530;9.414;2022-08-21T05:08:03;15.70;99.90
14741;DHT22;7462;53.530;9.414;2022-08-21T05:10:32;15.60;99.90
14741;DHT22;7462;53.530;9.414;2022-08-21T05:13:00;15.60;99.90
14741;DHT22;7462;53.530;9.414;2022-08-21T05:15:28;15.60;99.90
14741;DHT22;7462;53.530;9.414;2022-08-21T05:17:59;15.60;99.90
14741;DHT22;7462;53.530;9.414;2022-08-21T05:20:27;15.70;99.90
14741;DHT22;7462;53.530;9.414;2022-08-21T05:22:56;15.70;99.90
14741;DHT22;7462;53.530;9.414;2022-08-21T05:25:24;15.70;99.90
14741;DHT22;7462;53.530;9.414;2022-08-21T05:27:54;15.80;99.90
14741;DHT22;7462;53.530;9.414;2022-08-21T05:30:26;16.00;99.90
14741;DHT22;7462;53.530;9.414;2022-08-21T05:32:57;16.00;99.90
14741;DHT22;7462;53.530;9.414;2022-08-21T05:35:28;16.20;99.90
14741;DHT22;7462;53.530;9.414;2022-08-21T05:37:56;16.30;99.90
14741;DHT22;7462;53.530;9.414;2022-08-21T05:40:25;16.40;99.90
14741;DHT22;7462;53.530;9.414;2022-08-21T05:42:54;16.60;99.90
14741;DHT22;7462;53.530;9.414;2022-08-21T05:45:23;16.70;99.90
14741;DHT22;7462;53.530;9.414;2022-08-21T05:48:11;16.80;99.90
14741;DHT22;7462;53.530;9.414;2022-08-21T05:50:41;16.90;99.90
14741;DHT22;7462;53.530;9.414;2022-08-21T05:53:10;17.10;99.90
14741;DHT22;7462;53.530;9.414;2022-08-21T05:55:38;17.20;99.90
14741;DHT22;7462;53.530;9.414;2022-08-21T05:58:12;17.30;99.90
14741;DHT22;7462;53.530;9.414;2022-08-21T06:00:41;17.50;99.90
14741;DHT22;7462;53.530;9.414;2022-08-21T06:03:14;17.70;99.90
14741;DHT22;7462;53.530;9.414;2022-08-21T06:05:45;17.90;99.90
14741;DHT22;7462;53.530;9.414;2022-08-21T06:08:14;17.90;99.90
14741;DHT22;7462;53.530;9.414;2022-08-21T06:10:43;18.00;99.90
14741;DHT22;7462;53.530;9.414;2022-08-21T06:13:11;18.00;99.90
14741;DHT22;7462;53.530;9.414;2022-08-21T06:15:40;18.00;99.90
14741;DHT22;7462;53.530;9.414;2022-08-21T06:18:09;18.10;99.90
14741;DHT22;7462;53.530;9.414;2022-08-21T06:20:37;18.30;99.90
14741;DHT22;7462;53.530;9.414;2022-08-21T06:23:07;18.50;99.90
14741;DHT22;7462;53.530;9.414;2022-08-21T06:25:36;18.60;99.90
14741;DHT22;7462;53.530;9.414;2022-08-21T06:28:05;18.80;99.90
14741;DHT22;7462;53.530;9.414;2022-08-21T06:30:34;19.10;99.90
14741;DHT22;7462;53.530;9.414;2022-08-21T06:33:03;19.10;99.90
14741;DHT22;7462;53.530;9.414;2022-08-21T06:35:33;19.30;99.90
14741;DHT22;7462;53.530;9.414;2022-08-21T06:38:01;19.40;99.90
14741;DHT22;7462;53.530;9.414;2022-08-21T06:40:31;19.50;99.90
14741;DHT22;7462;53.530;9.414;2022-08-21T06:43:06;19.60;99.90
14741;DHT22;7462;53.530;9.414;2022-08-21T06:45:34;19.90;99.90
14741;DHT22;7462;53.530;9.414;2022-08-21T06:48:03;20.00;99.90
14741;DHT22;7462;53.530;9.414;2022-08-21T06:50:31;20.20;99.90
14741;DHT22;7462;53.530;9.414;2022-08-21T06:53:00;20.40;99.90
14741;DHT22;7462;53.530;9.414;2022-08-21T06:55:30;20.60;99.90
14741;DHT22;7462;53.530;9.414;2022-08-21T06:57:59;20.70;99.90
14741;DHT22;7462;53.530;9.414;2022-08-21T07:00:27;20.80;99.90
14741;DHT22;7462;53.530;9.414;2022-08-21T07:02:55;21.00;99.90
14741;DHT22;7462;53.530;9.414;2022-08-21T07:05:25;21.20;99.90
14741;DHT22;7462;53.530;9.414;2022-08-21T07:07:54;21.20;99.90
14741;DHT22;7462;53.530;9.414;2022-08-21T07:10:22;21.20;99.90
14741;DHT22;7462;53.530;9.414;2022-08-21T07:12:52;21.40;99.90
14741;DHT22;7462;53.530;9.414;2022-08-21T07:15:28;21.50;99.90
14741;DHT22;7462;53.530;9.414;2022-08-21T07:17:57;21.80;99.90
14741;DHT22;7462;53.530;9.414;2022-08-21T07:20:26;21.90;99.90
14741;DHT22;7462;53.530;9.414;2022-08-21T07:22:55;22.00;99.90
14741;DHT22;7462;53.530;9.414;2022-08-21T07:25:23;22.20;99.90
14741;DHT22;7462;53.530;9.414;2022-08-21T07:27:53;22.50;99.90
14741;DHT22;7462;53.530;9.414;2022-08-21T07:30:22;22.60;99.90
14741;DHT22;7462;53.530;9.414;2022-08-21T07:32:51;22.70;99.90
14741;DHT22;7462;53.530;9.414;2022-08-21T07:35:20;22.70;99.90
14741;DHT22;7462;53.530;9.414;2022-08-21T07:37:49;22.90;99.90
14741;DHT22;7462;53.530;9.414;2022-08-21T07:40:17;23.00;99.90
14741;DHT22;7462;53.530;9.414;2022-08-21T07:42:47;23.00;99.90
14741;DHT22;7462;53.530;9.414;2022-08-21T07:45:19;23.10;99.90
14741;DHT22;7462;53.530;9.414;2022-08-21T07:47:48;23.30;99.90
14741;DHT22;7462;53.530;9.414;2022-08-21T07:50:23;23.50;99.90
14741;DHT22;7462;53.530;9.414;2022-08-21T07:52:51;23.60;99.90
14741;DHT22;7462;53.530;9.414;2022-08-21T07:55:19;23.80;99.90
14741;DHT22;7462;53.530;9.414;2022-08-21T07:57:48;24.00;99.90
14741;DHT22;7462;53.530;9.414;2022-08-21T08:00:22;24.30;99.90
14741;DHT22;7462;53.530;9.414;2022-08-21T08:02:52;24.40;99.90
14741;DHT22;7462;53.530;9.414;2022-08-21T08:05:24;24.60;99.90
14741;DHT22;7462;53.530;9.414;2022-08-21T08:07:52;24.60;99.90
14741;DHT22;7462;53.530;9.414;2022-08-21T08:10:21;24.80;99.90
14741;DHT22;7462;53.530;9.414;2022-08-21T08:12:49;25.00;99.90
14741;DHT22;7462;53.530;9.414;2022-08-21T08:15:22;25.30;99.90
14741;DHT22;7462;53.530;9.414;2022-08-21T08:17:51;25.50;99.90
14741;DHT22;7462;53.530;9.414;2022-08-21T08:20:19;25.60;99.90
14741;DHT22;7462;53.530;9.414;2022-08-21T08:22:48;25.60;99.90
14741;DHT22;7462;53.530;9.414;2022-08-21T08:25:18;25.70;99.90
14741;DHT22;7462;53.530;9.414;2022-08-21T08:27:47;25.80;99.90
14741;DHT22;7462;53.530;9.414;2022-08-21T08:30:16;25.90;99.90
14741;DHT22;7462;53.530;9.414;2022-08-21T08:32:47;26.00;99.90
14741;DHT22;7462;53.530;9.414;2022-08-21T08:35:16;26.00;99.90
14741;DHT22;7462;53.530;9.414;2022-08-21T08:37:49;26.10;99.90
14741;DHT22;7462;53.530;9.414;2022-08-21T08:40:30;26.40;99.90
14741;DHT22;7462;53.530;9.414;2022-08-21T08:43:04;26.60;99.90
14741;DHT22;7462;53.530;9.414;2022-08-21T08:45:37;26.80;99.90
14741;DHT22;7462;53.530;9.414;2022-08-21T08:48:12;26.80;99.90
14741;DHT22;7462;53.530;9.414;2022-08-21T08:50:44;26.80;99.90
14741;DHT22;7462;53.530;9.414;2022-08-21T08:53:17;26.90;99.90
14741;DHT22;7462;53.530;9.414;2022-08-21T08:55:48;27.10;99.90
14741;DHT22;7462;53.530;9.414;2022-08-21T08:58:20;27.10;99.90
14741;DHT22;7462;53.530;9.414;2022-08-21T09:00:51;27.10;99.90
14741;DHT22;7462;53.530;9.414;2022-08-21T09:03:22;27.40;99.90
14741;DHT22;7462;53.530;9.414;2022-08-21T09:05:57;27.30;99.90
14741;DHT22;7462;53.530;9.414;2022-08-21T09:08:39;27.30;99.90
14741;DHT22;7462;53.530;9.414;2022-08-21T09:11:13;27.30;99.90
14741;DHT22;7462;53.530;9.414;2022-08-21T09:13:50;27.40;99.90
14741;DHT22;7462;53.530;9.414;2022-08-21T09:16:26;27.60;99.90
14741;DHT22;7462;53.530;9.414;2022-08-21T09:19:04;27.70;99.90
14741;DHT22;7462;53.530;9.414;2022-08-21T09:21:41;28.00;99.90
14741;DHT22;7462;53.530;9.414;2022-08-21T09:24:28;28.20;99.90
14741;DHT22;7462;53.530;9.414;2022-08-21T09:27:04;28.00;99.90
14741;DHT22;7462;53.530;9.414;2022-08-21T09:29:37;27.80;99.90
14741;DHT22;7462;53.530;9.414;2022-08-21T09:32:11;27.90;99.90
14741;DHT22;7462;53.530;9.414;2022-08-21T09:34:58;28.00;99.90
14741;DHT22;7462;53.530;9.414;2022-08-21T09:37:27;28.20;99.90
14741;DHT22;7462;53.530;9.414;2022-08-21T09:39:57;28.20;99.90
14741;DHT22;7462;53.530;9.414;2022-08-21T09:42:27;28.40;99.90
14741;DHT22;7462;53.530;9.414;2022-08-21T09:45:10;28.60;99.90
14741;DHT22;7462;53.530;9.414;2022-08-21T09:47:39;28.60;99.90
14741;DHT22;7462;53.530;9.414;2022-08-21T09:50:12;28.50;99.90
14741;DHT22;7462;53.530;9.414;2022-08-21T09:52:47;28.70;99.90
14741;DHT22;7462;53.530;9.414;2022-08-21T09:55:30;28.30;99.90
14741;DHT22;7462;53.530;9.414;2022-08-21T09:58:18;28.60;99.90
14741;DHT22;7462;53.530;9.414;2022-08-21T10:00:57;28.70;99.90
14741;DHT22;7462;53.530;9.414;2022-08-21T10:03:27;29.00;99.90
14741;DHT22;7462;53.530;9.414;2022-08-21T10:06:02;29.40;99.90
14741;DHT22;7462;53.530;9.414;2022-08-21T10:08:36;29.40;99.90
14741;DHT22;7462;53.530;9.414;2022-08-21T10:11:07;30.00;99.90
14741;DHT22;7462;53.530;9.414;2022-08-21T10:13:50;30.20;99.90
14741;DHT22;7462;53.530;9.414;2022-08-21T10:16:31;30.10;99.90
14741;DHT22;7462;53.530;9.414;2022-08-21T10:19:11;30.00;99.90
14741;DHT22;7462;53.530;9.414;2022-08-21T10:22:00;30.00;99.90
14741;DHT22;7462;53.530;9.414;2022-08-21T10:24:32;30.10;99.90
14741;DHT22;7462;53.530;9.414;2022-08-21T10:27:10;30.30;99.90
14741;DHT22;7462;53.530;9.414;2022-08-21T10:29:51;30.30;99.90
14741;DHT22;7462;53.530;9.414;2022-08-21T10:35:17;30.90;99.60
14741;DHT22;7462;53.530;9.414;2022-08-21T10:38:05;31.10;99.60
14741;DHT22;7462;53.530;9.414;2022-08-21T10:41:04;31.30;99.50
14741;DHT22;7462;53.530;9.414;2022-08-21T10:43:42;31.30;99.10
14741;DHT22;7462;53.530;9.414;2022-08-21T10:46:16;31.30;98.90
14741;DHT22;7462;53.530;9.414;2022-08-21T10:48:49;31.60;98.10
14741;DHT22;7462;53.530;9.414;2022-08-21T10:51:23;32.00;98.40
14741;DHT22;7462;53.530;9.414;2022-08-21T10:54:02;31.70;97.70
14741;DHT22;7462;53.530;9.414;2022-08-21T10:56:34;31.10;97.10
14741;DHT22;7462;53.530;9.414;2022-08-21T10:59:21;30.70;97.20
14741;DHT22;7462;53.530;9.414;2022-08-21T11:01:56;30.60;97.10
14741;DHT22;7462;53.530;9.414;2022-08-21T11:04:28;30.60;97.80
14741;DHT22;7462;53.530;9.414;2022-08-21T11:07:20;30.90;97.10
14741;DHT22;7462;53.530;9.414;2022-08-21T11:09:55;31.20;96.10
14741;DHT22;7462;53.530;9.414;2022-08-21T11:12:27;31.30;95.40
14741;DHT22;7462;53.530;9.414;2022-08-21T11:15:02;31.60;96.10
14741;DHT22;7462;53.530;9.414;2022-08-21T11:17:36;31.90;96.30
14741;DHT22;7462;53.530;9.414;2022-08-21T11:20:12;31.70;95.90
14741;DHT22;7462;53.530;9.414;2022-08-21T11:22:47;31.90;94.60
14741;DHT22;7462;53.530;9.414;2022-08-21T11:25:27;31.90;93.80
14741;DHT22;7462;53.530;9.414;2022-08-21T11:28:06;31.80;93.00
14741;DHT22;7462;53.530;9.414;2022-08-21T11:30:48;31.60;92.70
14741;DHT22;7462;53.530;9.414;2022-08-21T11:33:34;31.80;92.70
14741;DHT22;7462;53.530;9.414;2022-08-21T11:36:14;31.90;92.80
14741;DHT22;7462;53.530;9.414;2022-08-21T11:38:48;31.30;94.10
14741;DHT22;7462;53.530;9.414;2022-08-21T11:41:26;30.50;94.50
14741;DHT22;7462;53.530;9.414;2022-08-21T11:44:04;30.40;94.90
14741;DHT22;7462;53.530;9.414;2022-08-21T11:46:40;30.70;94.20
14741;DHT22;7462;53.530;9.414;2022-08-21T11:49:41;31.10;94.00
14741;DHT22;7462;53.530;9.414;2022-08-21T11:52:16;30.60;94.00
14741;DHT22;7462;53.530;9.414;2022-08-21T11:54:51;29.80;93.80
14741;DHT22;7462;53.530;9.414;2022-08-21T11:57:25;29.50;95.40
14741;DHT22;7462;53.530;9.414;2022-08-21T12:00:00;29.80;95.50
14741;DHT22;7462;53.530;9.414;2022-08-21T12:02:41;29.50;94.90
14741;DHT22;7462;53.530;9.414;2022-08-21T12:05:23;29.10;95.40
14741;DHT22;7462;53.530;9.414;2022-08-21T12:08:05;29.10;95.40
14741;DHT22;7462;53.530;9.414;2022-08-21T12:10:36;29.10;95.20
14741;DHT22;7462;53.530;9.414;2022-08-21T12:13:11;29.10;94.90
14741;DHT22;7462;53.530;9.414;2022-08-21T12:16:08;29.00;96.20
14741;DHT22;7462;53.530;9.414;2022-08-21T12:18:36;29.00;96.00
14741;DHT22;7462;53.530;9.414;2022-08-21T12:21:19;28.90;96.90
14741;DHT22;7462;53.530;9.414;2022-08-21T12:23:59;28.60;96.70
14741;DHT22;7462;53.530;9.414;2022-08-21T12:26:29;28.30;97.30
14741;DHT22;7462;53.530;9.414;2022-08-21T12:29:16;28.20;97.50
14741;DHT22;7462;53.530;9.414;2022-08-21T12:34:36;28.30;97.60
14741;DHT22;7462;53.530;9.414;2022-08-21T12:37:14;28.30;97.80
14741;DHT22;7462;53.530;9.414;2022-08-21T12:39:45;28.80;98.20
14741;DHT22;7462;53.530;9.414;2022-08-21T12:42:17;29.00;96.80
14741;DHT22;7462;53.530;9.414;2022-08-21T12:44:51;28.90;95.60
14741;DHT22;7462;53.530;9.414;2022-08-21T12:47:27;28.80;95.70
14741;DHT22;7462;53.530;9.414;2022-08-21T12:50:01;28.80;96.70
14741;DHT22;7462;53.530;9.414;2022-08-21T12:52:34;28.90;97.70
14741;DHT22;7462;53.530;9.414;2022-08-21T12:55:07;29.00;97.70
14741;DHT22;7462;53.530;9.414;2022-08-21T12:57:36;28.90;97.30
14741;DHT22;7462;53.530;9.414;2022-08-21T13:00:11;28.80;97.00
14741;DHT22;7462;53.530;9.414;2022-08-21T13:02:45;28.30;97.30
14741;DHT22;7462;53.530;9.414;2022-08-21T13:05:19;28.10;97.20
14741;DHT22;7462;53.530;9.414;2022-08-21T13:07:48;27.80;98.10
14741;DHT22;7462;53.530;9.414;2022-08-21T13:10:19;27.50;98.10
14741;DHT22;7462;53.530;9.414;2022-08-21T13:12:48;27.30;98.80
14741;DHT22;7462;53.530;9.414;2022-08-21T13:15:26;27.40;99.00
14741;DHT22;7462;53.530;9.414;2022-08-21T13:18:00;27.50;99.00
14741;DHT22;7462;53.530;9.414;2022-08-21T13:20:32;27.60;99.00
14741;DHT22;7462;53.530;9.414;2022-08-21T13:23:01;27.60;98.60
14741;DHT22;7462;53.530;9.414;2022-08-21T13:25:35;27.50;98.70
14741;DHT22;7462;53.530;9.414;2022-08-21T13:28:06;27.40;99.00
14741;DHT22;7462;53.530;9.414;2022-08-21T13:30:41;27.30;99.10
14741;DHT22;7462;53.530;9.414;2022-08-21T13:33:12;27.20;99.10
14741;DHT22;7462;53.530;9.414;2022-08-21T13:35:50;27.20;99.40
14741;DHT22;7462;53.530;9.414;2022-08-21T13:38:20;27.10;99.60
14741;DHT22;7462;53.530;9.414;2022-08-21T13:40:56;27.10;99.80
14741;DHT22;7462;53.530;9.414;2022-08-21T13:43:27;27.00;99.50
14741;DHT22;7462;53.530;9.414;2022-08-21T13:45:57;26.80;99.90
14741;DHT22;7462;53.530;9.414;2022-08-21T13:48:28;27.00;99.70
14741;DHT22;7462;53.530;9.414;2022-08-21T13:50:58;26.90;99.40
14741;DHT22;7462;53.530;9.414;2022-08-21T13:53:29;26.80;99.30
14741;DHT22;7462;53.530;9.414;2022-08-21T13:55:58;26.70;99.90
14741;DHT22;7462;53.530;9.414;2022-08-21T13:58:30;26.80;99.90
14741;DHT22;7462;53.530;9.414;2022-08-21T14:01:01;26.90;99.60
14741;DHT22;7462;53.530;9.414;2022-08-21T14:03:41;27.00;98.70
14741;DHT22;7462;53.530;9.414;2022-08-21T14:06:15;26.90;97.80
14741;DHT22;7462;53.530;9.414;2022-08-21T14:08:49;26.70;99.10
14741;DHT22;7462;53.530;9.414;2022-08-21T14:11:18;26.60;99.80
14741;DHT22;7462;53.530;9.414;2022-08-21T14:13:48;26.70;99.70
14741;DHT22;7462;53.530;9.414;2022-08-21T14:16:20;26.60;98.50
14741;DHT22;7462;53.530;9.414;2022-08-21T14:19:07;26.50;99.20
14741;DHT22;7462;53.530;9.414;2022-08-21T14:21:37;26.50;99.10
14741;DHT22;7462;53.530;9.414;2022-08-21T14:24:08;26.50;99.40
14741;DHT22;7462;53.530;9.414;2022-08-21T14:26:44;26.40;99.50
14741;DHT22;7462;53.530;9.414;2022-08-21T14:29:14;26.30;99.90
14741;DHT22;7462;53.530;9.414;2022-08-21T14:31:49;26.40;99.90
14741;DHT22;7462;53.530;9.414;2022-08-21T14:34:18;26.50;99.90
14741;DHT22;7462;53.530;9.414;2022-08-21T14:36:47;26.50;99.70
14741;DHT22;7462;53.530;9.414;2022-08-21T14:39:15;26.40;99.20
14741;DHT22;7462;53.530;9.414;2022-08-21T14:41:44;26.40;99.60
14741;DHT22;7462;53.530;9.414;2022-08-21T14:44:16;26.40;98.90
14741;DHT22;7462;53.530;9.414;2022-08-21T14:46:46;26.20;99.50
14741;DHT22;7462;53.530;9.414;2022-08-21T14:49:24;26.20;99.90
14741;DHT22;7462;53.530;9.414;2022-08-21T14:51:54;26.20;99.60
14741;DHT22;7462;53.530;9.414;2022-08-21T14:54:24;26.10;99.20
14741;DHT22;7462;53.530;9.414;2022-08-21T14:56:59;26.10;99.90
14741;DHT22;7462;53.530;9.414;2022-08-21T14:59:28;26.00;99.90
14741;DHT22;7462;53.530;9.414;2022-08-21T15:01:58;25.90;99.90
14741;DHT22;7462;53.530;9.414;2022-08-21T15:04:26;25.70;99.90
14741;DHT22;7462;53.530;9.414;2022-08-21T15:06:54;25.60;99.90
14741;DHT22;7462;53.530;9.414;2022-08-21T15:09:23;25.70;99.90
14741;DHT22;7462;53.530;9.414;2022-08-21T15:11:52;25.70;99.90
14741;DHT22;7462;53.530;9.414;2022-08-21T15:14:27;25.70;99.90
14741;DHT22;7462;53.530;9.414;2022-08-21T15:16:58;25.60;99.90
14741;DHT22;7462;53.530;9.414;2022-08-21T15:19:26;25.50;99.90
14741;DHT22;7462;53.530;9.414;2022-08-21T15:21:56;25.50;99.90
14741;DHT22;7462;53.530;9.414;2022-08-21T15:24:24;25.40;99.90
14741;DHT22;7462;53.530;9.414;2022-08-21T15:26:53;25.40;99.90
14741;DHT22;7462;53.530;9.414;2022-08-21T15:29:21;25.50;99.90
14741;DHT22;7462;53.530;9.414;2022-08-21T15:31:56;25.60;99.90
14741;DHT22;7462;53.530;9.414;2022-08-21T15:34:28;25.60;99.90
14741;DHT22;7462;53.530;9.414;2022-08-21T15:36:57;25.70;99.90
14741;DHT22;7462;53.530;9.414;2022-08-21T15:39:27;25.60;99.90
14741;DHT22;7462;53.530;9.414;2022-08-21T15:42:03;25.60;99.90
14741;DHT22;7462;53.530;9.414;2022-08-21T15:44:38;25.60;99.90
14741;DHT22;7462;53.530;9.414;2022-08-21T15:47:06;25.70;99.90
14741;DHT22;7462;53.530;9.414;2022-08-21T15:49:36;25.60;99.90
14741;DHT22;7462;53.530;9.414;2022-08-21T15:52:04;25.60;99.90
14741;DHT22;7462;53.530;9.414;2022-08-21T15:54:32;25.50;99.90
14741;DHT22;7462;53.530;9.414;2022-08-21T15:57:01;25.50;99.90
14741;DHT22;7462;53.530;9.414;2022-08-21T15:59:37;25.40;99.90
14741;DHT22;7462;53.530;9.414;2022-08-21T16:02:08;25.40;99.90
14741;DHT22;7462;53.530;9.414;2022-08-21T16:04:41;25.40;99.90
14741;DHT22;7462;53.530;9.414;2022-08-21T16:07:10;25.30;99.90
14741;DHT22;7462;53.530;9.414;2022-08-21T16:09:38;25.30;99.90
14741;DHT22;7462;53.530;9.414;2022-08-21T16:12:07;25.20;99.90
14741;DHT22;7462;53.530;9.414;2022-08-21T16:14:37;25.30;99.90
14741;DHT22;7462;53.530;9.414;2022-08-21T16:17:06;25.20;99.90
14741;DHT22;7462;53.530;9.414;2022-08-21T16:19:35;25.20;99.90